Ahwahnee, California
Current Conditions -  °F | °C
As of 12:53 PM on Saturday 22 Nov 2014 (Local Time) from KMAE Reporting Station
Haze Haze  
Wind Chill: 60°   Ceiling: 3100
Heat Index: 60°   Visibility: 6mi
Dew Point: 49°   Wind: 9mph
Humidity: 67%   Direction: 70°ENE
Pressure: 30.15"   Gusts: NA
Location:  37.37°N, 119.73°W
Report Text: KMAE 222053Z AUTO 07008KT 6SM HZ BKN031 OVC039 16/09 A3015 RMK AO2 RAB1955E23B40E51 SLP208 P0000 60000 T01560094 $
Loading
Personal Weather Stations






























Interactive Weather Map New forecast layout! Learn more

10-Day Weather Forecast

Advertisements
Track Severe Weather on mobile